Sidney, Canada
Current Conditions -  °F | °C
As of 11:00 AM on Sunday 28 Dec 2014 (Local Time) from CYYJ Reporting Station
Few Clouds Few Clouds  
Wind Chill: 35°   Ceiling: Unl
Heat Index: 39°   Visibility: 30mi
Dew Point: 36°   Wind: 6mph
Humidity: 87%   Direction: 280°W
Pressure: 30.22"   Gusts: NA
Location:  48.65°N, 123.42°W
Report Text: CYYJ 281900Z 28005KT 30SM FEW045 04/02 A3022 RMK SC2 SLP233
Loading
Personal Weather Stations






























Interactive Weather Map New forecast layout! Learn more

10-Day Weather Forecast

Advertisements
Track Severe Weather on mobile